sensor_id;sensor_type;location;lat;lon;timestamp;temperature;humidity
56725;DHT22;42608;52.776;6.968;2023-06-10T00:00:46;18.90;96.10
56725;DHT22;42608;52.776;6.968;2023-06-10T00:03:11;18.80;96.40
56725;DHT22;42608;52.776;6.968;2023-06-10T00:05:38;18.80;96.70
56725;DHT22;42608;52.776;6.968;2023-06-10T00:08:05;18.80;97.40
56725;DHT22;42608;52.776;6.968;2023-06-10T00:10:34;18.70;97.70
56725;DHT22;42608;52.776;6.968;2023-06-10T00:13:00;18.70;98.00
56725;DHT22;42608;52.776;6.968;2023-06-10T00:15:26;18.70;98.20
56725;DHT22;42608;52.776;6.968;2023-06-10T00:17:52;18.70;98.60
56725;DHT22;42608;52.776;6.968;2023-06-10T00:20:20;18.70;98.70
56725;DHT22;42608;52.776;6.968;2023-06-10T00:22:51;18.60;99.20
56725;DHT22;42608;52.776;6.968;2023-06-10T00:25:17;18.60;99.40
56725;DHT22;42608;52.776;6.968;2023-06-10T00:27:46;18.50;99.80
56725;DHT22;42608;52.776;6.968;2023-06-10T00:30:11;18.50;99.90
56725;DHT22;42608;52.776;6.968;2023-06-10T00:32:43;18.50;99.90
56725;DHT22;42608;52.776;6.968;2023-06-10T00:35:08;18.40;99.90
56725;DHT22;42608;52.776;6.968;2023-06-10T00:37:34;18.30;99.90
56725;DHT22;42608;52.776;6.968;2023-06-10T00:40:03;18.20;99.90
56725;DHT22;42608;52.776;6.968;2023-06-10T00:42:29;18.10;99.90
56725;DHT22;42608;52.776;6.968;2023-06-10T00:44:55;18.00;99.90
56725;DHT22;42608;52.776;6.968;2023-06-10T00:47:20;17.90;99.90
56725;DHT22;42608;52.776;6.968;2023-06-10T00:49:47;17.90;99.90
56725;DHT22;42608;52.776;6.968;2023-06-10T00:52:13;17.80;99.90
56725;DHT22;42608;52.776;6.968;2023-06-10T00:54:39;17.80;99.90
56725;DHT22;42608;52.776;6.968;2023-06-10T00:57:05;17.70;99.90
56725;DHT22;42608;52.776;6.968;2023-06-10T00:59:31;17.70;99.90
56725;DHT22;42608;52.776;6.968;2023-06-10T01:01:57;17.70;99.90
56725;DHT22;42608;52.776;6.968;2023-06-10T01:04:23;17.60;99.90
56725;DHT22;42608;52.776;6.968;2023-06-10T01:12:12;17.50;99.90
56725;DHT22;42608;52.776;6.968;2023-06-10T01:14:39;17.50;99.90
56725;DHT22;42608;52.776;6.968;2023-06-10T01:17:10;17.40;99.90
56725;DHT22;42608;52.776;6.968;2023-06-10T01:19:36;17.40;99.90
56725;DHT22;42608;52.776;6.968;2023-06-10T01:22:02;17.40;99.90
56725;DHT22;42608;52.776;6.968;2023-06-10T01:24:29;17.40;99.90
56725;DHT22;42608;52.776;6.968;2023-06-10T01:26:59;17.30;99.90
56725;DHT22;42608;52.776;6.968;2023-06-10T01:29:30;17.30;99.90
56725;DHT22;42608;52.776;6.968;2023-06-10T01:32:15;17.30;99.90
56725;DHT22;42608;52.776;6.968;2023-06-10T01:34:41;17.20;99.90
56725;DHT22;42608;52.776;6.968;2023-06-10T01:37:09;17.20;99.90
56725;DHT22;42608;52.776;6.968;2023-06-10T01:39:35;17.20;99.90
56725;DHT22;42608;52.776;6.968;2023-06-10T01:42:01;17.20;99.90
56725;DHT22;42608;52.776;6.968;2023-06-10T01:44:27;17.10;99.90
56725;DHT22;42608;52.776;6.968;2023-06-10T01:46:53;17.10;99.90
56725;DHT22;42608;52.776;6.968;2023-06-10T01:49:18;17.10;99.90
56725;DHT22;42608;52.776;6.968;2023-06-10T01:51:44;17.00;99.90
56725;DHT22;42608;52.776;6.968;2023-06-10T01:54:10;17.00;99.90
56725;DHT22;42608;52.776;6.968;2023-06-10T01:56:35;16.90;99.90
56725;DHT22;42608;52.776;6.968;2023-06-10T01:59:01;16.80;99.90
56725;DHT22;42608;52.776;6.968;2023-06-10T02:01:29;16.90;99.90
56725;DHT22;42608;52.776;6.968;2023-06-10T02:03:55;16.80;99.90
56725;DHT22;42608;52.776;6.968;2023-06-10T02:06:21;16.70;99.90
56725;DHT22;42608;52.776;6.968;2023-06-10T02:08:46;16.70;99.90
56725;DHT22;42608;52.776;6.968;2023-06-10T02:11:12;16.70;99.90
56725;DHT22;42608;52.776;6.968;2023-06-10T02:13:38;16.60;99.90
56725;DHT22;42608;52.776;6.968;2023-06-10T02:16:03;16.60;99.90
56725;DHT22;42608;52.776;6.968;2023-06-10T02:18:29;16.50;99.90
56725;DHT22;42608;52.776;6.968;2023-06-10T02:20:55;16.50;99.90
56725;DHT22;42608;52.776;6.968;2023-06-10T02:23:21;16.40;99.90
56725;DHT22;42608;52.776;6.968;2023-06-10T02:25:46;16.40;99.90
56725;DHT22;42608;52.776;6.968;2023-06-10T02:28:16;16.30;99.90
56725;DHT22;42608;52.776;6.968;2023-06-10T02:30:42;16.20;99.90
56725;DHT22;42608;52.776;6.968;2023-06-10T02:33:08;16.20;99.90
56725;DHT22;42608;52.776;6.968;2023-06-10T02:35:39;16.20;99.90
56725;DHT22;42608;52.776;6.968;2023-06-10T02:38:05;16.20;99.90
56725;DHT22;42608;52.776;6.968;2023-06-10T02:40:31;16.10;99.90
56725;DHT22;42608;52.776;6.968;2023-06-10T02:42:56;16.10;99.90
56725;DHT22;42608;52.776;6.968;2023-06-10T02:45:22;16.10;99.90
56725;DHT22;42608;52.776;6.968;2023-06-10T02:47:48;16.10;99.90
56725;DHT22;42608;52.776;6.968;2023-06-10T02:50:14;16.00;99.90
56725;DHT22;42608;52.776;6.968;2023-06-10T02:52:39;16.00;99.90
56725;DHT22;42608;52.776;6.968;2023-06-10T02:55:11;16.00;99.90
56725;DHT22;42608;52.776;6.968;2023-06-10T02:57:37;15.90;99.90
56725;DHT22;42608;52.776;6.968;2023-06-10T03:00:08;15.90;99.90
56725;DHT22;42608;52.776;6.968;2023-06-10T03:02:37;15.90;99.90
56725;DHT22;42608;52.776;6.968;2023-06-10T03:05:04;15.80;99.90
56725;DHT22;42608;52.776;6.968;2023-06-10T03:07:30;15.80;99.90
56725;DHT22;42608;52.776;6.968;2023-06-10T03:09:56;15.70;99.90
56725;DHT22;42608;52.776;6.968;2023-06-10T03:12:21;15.70;99.90
56725;DHT22;42608;52.776;6.968;2023-06-10T03:14:47;15.70;99.90
56725;DHT22;42608;52.776;6.968;2023-06-10T03:17:15;15.60;99.90
56725;DHT22;42608;52.776;6.968;2023-06-10T03:19:41;15.60;99.90
56725;DHT22;42608;52.776;6.968;2023-06-10T03:22:08;15.60;99.90
56725;DHT22;42608;52.776;6.968;2023-06-10T03:24:33;15.60;99.90
56725;DHT22;42608;52.776;6.968;2023-06-10T03:26:59;15.50;99.90
56725;DHT22;42608;52.776;6.968;2023-06-10T03:29:25;15.50;99.90
56725;DHT22;42608;52.776;6.968;2023-06-10T03:31:57;15.50;99.90
56725;DHT22;42608;52.776;6.968;2023-06-10T03:34:22;15.40;99.90
56725;DHT22;42608;52.776;6.968;2023-06-10T03:36:49;15.40;99.90
56725;DHT22;42608;52.776;6.968;2023-06-10T03:39:15;15.40;99.90
56725;DHT22;42608;52.776;6.968;2023-06-10T03:41:40;15.30;99.90
56725;DHT22;42608;52.776;6.968;2023-06-10T03:44:06;15.30;99.90
56725;DHT22;42608;52.776;6.968;2023-06-10T03:46:31;15.30;99.90
56725;DHT22;42608;52.776;6.968;2023-06-10T03:48:57;15.30;99.90
56725;DHT22;42608;52.776;6.968;2023-06-10T03:51:26;15.30;99.90
56725;DHT22;42608;52.776;6.968;2023-06-10T03:53:51;15.30;99.90
56725;DHT22;42608;52.776;6.968;2023-06-10T03:56:20;15.30;99.90
56725;DHT22;42608;52.776;6.968;2023-06-10T03:58:45;15.30;99.90
56725;DHT22;42608;52.776;6.968;2023-06-10T04:01:11;15.30;99.90
56725;DHT22;42608;52.776;6.968;2023-06-10T04:03:38;15.30;99.90
56725;DHT22;42608;52.776;6.968;2023-06-10T04:06:04;15.30;99.90
56725;DHT22;42608;52.776;6.968;2023-06-10T04:08:30;15.30;99.90
56725;DHT22;42608;52.776;6.968;2023-06-10T04:10:56;15.30;99.90
56725;DHT22;42608;52.776;6.968;2023-06-10T04:13:25;15.30;99.90
56725;DHT22;42608;52.776;6.968;2023-06-10T04:15:54;15.30;99.90
56725;DHT22;42608;52.776;6.968;2023-06-10T04:18:20;15.30;99.90
56725;DHT22;42608;52.776;6.968;2023-06-10T04:20:47;15.30;99.90
56725;DHT22;42608;52.776;6.968;2023-06-10T04:23:12;15.40;99.90
56725;DHT22;42608;52.776;6.968;2023-06-10T04:25:41;15.30;99.90
56725;DHT22;42608;52.776;6.968;2023-06-10T04:28:06;15.40;99.90
56725;DHT22;42608;52.776;6.968;2023-06-10T04:30:32;15.40;99.90
56725;DHT22;42608;52.776;6.968;2023-06-10T04:32:57;15.40;99.90
56725;DHT22;42608;52.776;6.968;2023-06-10T04:35:23;15.40;99.90
56725;DHT22;42608;52.776;6.968;2023-06-10T04:37:48;15.40;99.90
56725;DHT22;42608;52.776;6.968;2023-06-10T04:40:14;15.50;99.90
56725;DHT22;42608;52.776;6.968;2023-06-10T04:42:41;15.50;99.90
56725;DHT22;42608;52.776;6.968;2023-06-10T04:45:07;15.50;99.90
56725;DHT22;42608;52.776;6.968;2023-06-10T04:47:35;15.50;99.90
56725;DHT22;42608;52.776;6.968;2023-06-10T04:50:00;15.60;99.90
56725;DHT22;42608;52.776;6.968;2023-06-10T04:52:29;15.60;99.90
56725;DHT22;42608;52.776;6.968;2023-06-10T04:54:54;15.60;99.90
56725;DHT22;42608;52.776;6.968;2023-06-10T04:57:21;15.70;99.90
56725;DHT22;42608;52.776;6.968;2023-06-10T04:59:47;15.70;99.90
56725;DHT22;42608;52.776;6.968;2023-06-10T05:02:12;15.70;99.90
56725;DHT22;42608;52.776;6.968;2023-06-10T05:04:38;15.80;99.90
56725;DHT22;42608;52.776;6.968;2023-06-10T05:07:04;15.80;99.90
56725;DHT22;42608;52.776;6.968;2023-06-10T05:09:30;15.80;99.90
56725;DHT22;42608;52.776;6.968;2023-06-10T05:11:55;15.90;99.90
56725;DHT22;42608;52.776;6.968;2023-06-10T05:14:21;15.90;99.90
56725;DHT22;42608;52.776;6.968;2023-06-10T05:16:50;16.00;99.90
56725;DHT22;42608;52.776;6.968;2023-06-10T05:19:15;16.00;99.90
56725;DHT22;42608;52.776;6.968;2023-06-10T05:21:44;16.10;99.90
56725;DHT22;42608;52.776;6.968;2023-06-10T05:24:10;16.10;99.90
56725;DHT22;42608;52.776;6.968;2023-06-10T05:26:36;16.10;99.90
56725;DHT22;42608;52.776;6.968;2023-06-10T05:29:04;16.20;99.90
56725;DHT22;42608;52.776;6.968;2023-06-10T05:31:30;16.30;99.90
56725;DHT22;42608;52.776;6.968;2023-06-10T05:33:56;16.30;99.90
56725;DHT22;42608;52.776;6.968;2023-06-10T05:36:21;16.40;99.90
56725;DHT22;42608;52.776;6.968;2023-06-10T05:38:47;16.50;99.90
56725;DHT22;42608;52.776;6.968;2023-06-10T05:41:13;16.50;99.90
56725;DHT22;42608;52.776;6.968;2023-06-10T05:43:38;16.50;99.90
56725;DHT22;42608;52.776;6.968;2023-06-10T05:46:04;16.60;99.90
56725;DHT22;42608;52.776;6.968;2023-06-10T05:48:29;16.60;99.90
56725;DHT22;42608;52.776;6.968;2023-06-10T05:50:58;16.70;99.90
56725;DHT22;42608;52.776;6.968;2023-06-10T05:53:23;16.80;99.90
56725;DHT22;42608;52.776;6.968;2023-06-10T05:55:49;16.80;99.90
56725;DHT22;42608;52.776;6.968;2023-06-10T05:58:14;16.80;99.90
56725;DHT22;42608;52.776;6.968;2023-06-10T06:00:41;16.90;99.90
56725;DHT22;42608;52.776;6.968;2023-06-10T06:03:07;16.90;99.90
56725;DHT22;42608;52.776;6.968;2023-06-10T06:05:33;17.00;99.90
56725;DHT22;42608;52.776;6.968;2023-06-10T06:08:01;17.00;99.90
56725;DHT22;42608;52.776;6.968;2023-06-10T06:10:27;17.10;99.90
56725;DHT22;42608;52.776;6.968;2023-06-10T06:12:53;17.10;99.90
56725;DHT22;42608;52.776;6.968;2023-06-10T06:15:18;17.20;99.90
56725;DHT22;42608;52.776;6.968;2023-06-10T06:17:44;17.20;99.90
56725;DHT22;42608;52.776;6.968;2023-06-10T06:20:09;17.30;99.90
56725;DHT22;42608;52.776;6.968;2023-06-10T06:22:35;17.40;99.90
56725;DHT22;42608;52.776;6.968;2023-06-10T06:25:01;17.50;99.90
56725;DHT22;42608;52.776;6.968;2023-06-10T06:27:26;17.50;99.90
56725;DHT22;42608;52.776;6.968;2023-06-10T06:29:52;17.60;99.90
56725;DHT22;42608;52.776;6.968;2023-06-10T06:32:17;17.60;99.90
56725;DHT22;42608;52.776;6.968;2023-06-10T06:34:43;17.70;99.90
56725;DHT22;42608;52.776;6.968;2023-06-10T06:37:08;17.80;99.90
56725;DHT22;42608;52.776;6.968;2023-06-10T06:39:34;17.80;99.90
56725;DHT22;42608;52.776;6.968;2023-06-10T06:42:00;17.80;99.90
56725;DHT22;42608;52.776;6.968;2023-06-10T06:44:25;17.90;99.90
56725;DHT22;42608;52.776;6.968;2023-06-10T06:46:51;17.90;99.90
56725;DHT22;42608;52.776;6.968;2023-06-10T06:49:16;18.00;99.90
56725;DHT22;42608;52.776;6.968;2023-06-10T06:51:42;18.10;99.90
56725;DHT22;42608;52.776;6.968;2023-06-10T06:54:08;18.10;99.90
56725;DHT22;42608;52.776;6.968;2023-06-10T06:56:33;18.20;99.90
56725;DHT22;42608;52.776;6.968;2023-06-10T06:58:59;18.20;99.90
56725;DHT22;42608;52.776;6.968;2023-06-10T07:01:24;18.30;99.90
56725;DHT22;42608;52.776;6.968;2023-06-10T07:03:50;18.40;99.90
56725;DHT22;42608;52.776;6.968;2023-06-10T07:06:15;18.50;99.90
56725;DHT22;42608;52.776;6.968;2023-06-10T07:08:41;18.50;99.90
56725;DHT22;42608;52.776;6.968;2023-06-10T07:11:07;18.60;99.90
56725;DHT22;42608;52.776;6.968;2023-06-10T07:13:32;18.70;99.90
56725;DHT22;42608;52.776;6.968;2023-06-10T07:15:58;18.70;99.90
56725;DHT22;42608;52.776;6.968;2023-06-10T07:18:24;18.80;99.90
56725;DHT22;42608;52.776;6.968;2023-06-10T07:20:49;18.90;99.90
56725;DHT22;42608;52.776;6.968;2023-06-10T07:23:21;18.90;99.90
56725;DHT22;42608;52.776;6.968;2023-06-10T07:25:49;19.00;99.90
56725;DHT22;42608;52.776;6.968;2023-06-10T07:28:15;19.00;99.90
56725;DHT22;42608;52.776;6.968;2023-06-10T07:30:40;19.10;99.90
56725;DHT22;42608;52.776;6.968;2023-06-10T07:33:07;19.10;99.90
56725;DHT22;42608;52.776;6.968;2023-06-10T07:35:33;19.20;99.90
56725;DHT22;42608;52.776;6.968;2023-06-10T07:37:59;19.20;99.90
56725;DHT22;42608;52.776;6.968;2023-06-10T07:40:24;19.30;99.90
56725;DHT22;42608;52.776;6.968;2023-06-10T07:42:50;19.30;99.90
56725;DHT22;42608;52.776;6.968;2023-06-10T07:45:15;19.40;99.90
56725;DHT22;42608;52.776;6.968;2023-06-10T07:47:42;19.40;99.90
56725;DHT22;42608;52.776;6.968;2023-06-10T07:50:08;19.50;99.90
56725;DHT22;42608;52.776;6.968;2023-06-10T07:52:36;19.50;99.90
56725;DHT22;42608;52.776;6.968;2023-06-10T07:55:02;19.50;99.90
56725;DHT22;42608;52.776;6.968;2023-06-10T07:57:28;19.60;99.90
56725;DHT22;42608;52.776;6.968;2023-06-10T07:59:53;19.70;99.90
56725;DHT22;42608;52.776;6.968;2023-06-10T08:02:20;19.70;99.90
56725;DHT22;42608;52.776;6.968;2023-06-10T08:04:45;19.70;99.90
56725;DHT22;42608;52.776;6.968;2023-06-10T08:07:11;19.80;99.90
56725;DHT22;42608;52.776;6.968;2023-06-10T08:09:37;19.90;99.90
56725;DHT22;42608;52.776;6.968;2023-06-10T08:12:02;20.00;99.90
56725;DHT22;42608;52.776;6.968;2023-06-10T08:14:28;20.00;99.90
56725;DHT22;42608;52.776;6.968;2023-06-10T08:16:53;20.10;99.90
56725;DHT22;42608;52.776;6.968;2023-06-10T08:19:19;20.10;99.90
56725;DHT22;42608;52.776;6.968;2023-06-10T08:21:45;20.20;99.90
56725;DHT22;42608;52.776;6.968;2023-06-10T08:24:11;20.30;99.90
56725;DHT22;42608;52.776;6.968;2023-06-10T08:26:39;20.30;99.90
56725;DHT22;42608;52.776;6.968;2023-06-10T08:29:04;20.40;99.90
56725;DHT22;42608;52.776;6.968;2023-06-10T08:31:30;20.40;99.90
56725;DHT22;42608;52.776;6.968;2023-06-10T08:33:55;20.50;99.90
56725;DHT22;42608;52.776;6.968;2023-06-10T08:36:21;20.60;99.90
56725;DHT22;42608;52.776;6.968;2023-06-10T08:38:47;20.60;99.90
56725;DHT22;42608;52.776;6.968;2023-06-10T08:41:13;20.70;99.90
56725;DHT22;42608;52.776;6.968;2023-06-10T08:43:42;20.70;99.90
56725;DHT22;42608;52.776;6.968;2023-06-10T08:46:09;20.80;99.90
56725;DHT22;42608;52.776;6.968;2023-06-10T08:48:35;20.90;99.90
56725;DHT22;42608;52.776;6.968;2023-06-10T08:51:04;20.90;99.90
56725;DHT22;42608;52.776;6.968;2023-06-10T08:53:31;21.00;99.90
56725;DHT22;42608;52.776;6.968;2023-06-10T08:55:59;21.00;99.90
56725;DHT22;42608;52.776;6.968;2023-06-10T08:58:26;21.10;99.90
56725;DHT22;42608;52.776;6.968;2023-06-10T09:00:52;21.20;99.90
56725;DHT22;42608;52.776;6.968;2023-06-10T09:03:18;21.30;99.90
56725;DHT22;42608;52.776;6.968;2023-06-10T09:05:44;21.40;99.90
56725;DHT22;42608;52.776;6.968;2023-06-10T09:08:09;21.50;99.90
56725;DHT22;42608;52.776;6.968;2023-06-10T09:10:35;21.50;99.90
56725;DHT22;42608;52.776;6.968;2023-06-10T09:13:01;21.50;99.90
56725;DHT22;42608;52.776;6.968;2023-06-10T09:15:26;21.60;99.90
56725;DHT22;42608;52.776;6.968;2023-06-10T09:17:52;21.60;99.90
56725;DHT22;42608;52.776;6.968;2023-06-10T09:20:17;21.80;99.90
56725;DHT22;42608;52.776;6.968;2023-06-10T09:22:43;21.80;99.90
56725;DHT22;42608;52.776;6.968;2023-06-10T09:25:12;21.80;99.90
56725;DHT22;42608;52.776;6.968;2023-06-10T09:27:48;21.90;99.90
56725;DHT22;42608;52.776;6.968;2023-06-10T09:32:57;22.10;99.90
56725;DHT22;42608;52.776;6.968;2023-06-10T09:35:26;22.20;99.90
56725;DHT22;42608;52.776;6.968;2023-06-10T09:37:55;22.20;99.90
56725;DHT22;42608;52.776;6.968;2023-06-10T09:40:21;22.30;98.90
56725;DHT22;42608;52.776;6.968;2023-06-10T09:42:49;22.30;98.50
56725;DHT22;42608;52.776;6.968;2023-06-10T09:45:20;22.40;98.80
56725;DHT22;42608;52.776;6.968;2023-06-10T09:47:46;22.50;99.80
56725;DHT22;42608;52.776;6.968;2023-06-10T09:50:12;22.60;99.20
56725;DHT22;42608;52.776;6.968;2023-06-10T09:52:37;22.60;98.50
56725;DHT22;42608;52.776;6.968;2023-06-10T09:55:03;22.70;96.80
56725;DHT22;42608;52.776;6.968;2023-06-10T09:57:32;22.80;96.30
56725;DHT22;42608;52.776;6.968;2023-06-10T10:00:04;22.80;94.50
56725;DHT22;42608;52.776;6.968;2023-06-10T10:02:30;22.90;93.70
56725;DHT22;42608;52.776;6.968;2023-06-10T10:05:02;23.00;93.20
56725;DHT22;42608;52.776;6.968;2023-06-10T10:07:28;23.00;93.40
56725;DHT22;42608;52.776;6.968;2023-06-10T10:09:53;23.10;93.50
56725;DHT22;42608;52.776;6.968;2023-06-10T10:12:19;23.20;91.60
56725;DHT22;42608;52.776;6.968;2023-06-10T10:14:46;23.30;88.90
56725;DHT22;42608;52.776;6.968;2023-06-10T10:17:14;23.30;86.30
56725;DHT22;42608;52.776;6.968;2023-06-10T10:20:02;23.30;84.70
56725;DHT22;42608;52.776;6.968;2023-06-10T10:22:26;23.40;84.60
56725;DHT22;42608;52.776;6.968;2023-06-10T10:24:58;23.40;81.50
56725;DHT22;42608;52.776;6.968;2023-06-10T10:27:26;23.40;78.90
56725;DHT22;42608;52.776;6.968;2023-06-10T10:29:52;23.50;79.50
56725;DHT22;42608;52.776;6.968;2023-06-10T10:32:20;23.50;79.00
56725;DHT22;42608;52.776;6.968;2023-06-10T10:37:14;23.70;73.60
56725;DHT22;42608;52.776;6.968;2023-06-10T10:39:40;23.80;71.00
56725;DHT22;42608;52.776;6.968;2023-06-10T10:42:06;23.90;71.60
56725;DHT22;42608;52.776;6.968;2023-06-10T10:44:35;24.00;72.40
56725;DHT22;42608;52.776;6.968;2023-06-10T10:47:02;24.00;73.70
56725;DHT22;42608;52.776;6.968;2023-06-10T10:49:28;24.10;68.80
56725;DHT22;42608;52.776;6.968;2023-06-10T10:51:58;24.20;68.00
56725;DHT22;42608;52.776;6.968;2023-06-10T10:54:28;24.30;65.30
56725;DHT22;42608;52.776;6.968;2023-06-10T10:57:14;24.30;65.50
56725;DHT22;42608;52.776;6.968;2023-06-10T10:59:43;24.40;66.60
56725;DHT22;42608;52.776;6.968;2023-06-10T11:02:09;24.40;70.50
56725;DHT22;42608;52.776;6.968;2023-06-10T11:04:35;24.50;67.30
56725;DHT22;42608;52.776;6.968;2023-06-10T11:07:07;24.60;67.00
56725;DHT22;42608;52.776;6.968;2023-06-10T11:09:32;24.60;66.80
56725;DHT22;42608;52.776;6.968;2023-06-10T11:11:58;24.70;64.90
56725;DHT22;42608;52.776;6.968;2023-06-10T11:14:27;24.70;61.60
56725;DHT22;42608;52.776;6.968;2023-06-10T11:16:53;24.70;63.60
56725;DHT22;42608;52.776;6.968;2023-06-10T11:19:37;24.80;66.10
56725;DHT22;42608;52.776;6.968;2023-06-10T11:22:07;24.80;63.80
56725;DHT22;42608;52.776;6.968;2023-06-10T11:24:33;24.90;63.00
56725;DHT22;42608;52.776;6.968;2023-06-10T11:27:14;25.00;61.90
56725;DHT22;42608;52.776;6.968;2023-06-10T11:29:54;25.00;60.70
56725;DHT22;42608;52.776;6.968;2023-06-10T11:32:20;25.00;59.40
56725;DHT22;42608;52.776;6.968;2023-06-10T11:34:51;25.00;60.60
56725;DHT22;42608;52.776;6.968;2023-06-10T11:37:17;25.10;63.00
56725;DHT22;42608;52.776;6.968;2023-06-10T11:39:45;25.20;61.50
56725;DHT22;42608;52.776;6.968;2023-06-10T11:42:11;25.30;61.10
56725;DHT22;42608;52.776;6.968;2023-06-10T11:44:37;25.40;61.20
56725;DHT22;42608;52.776;6.968;2023-06-10T11:47:03;25.50;61.10
56725;DHT22;42608;52.776;6.968;2023-06-10T11:49:29;25.60;59.40
56725;DHT22;42608;52.776;6.968;2023-06-10T11:51:55;25.70;59.60
56725;DHT22;42608;52.776;6.968;2023-06-10T11:54:21;25.70;58.90
56725;DHT22;42608;52.776;6.968;2023-06-10T11:56:48;25.80;57.90
56725;DHT22;42608;52.776;6.968;2023-06-10T11:59:14;25.80;59.40
56725;DHT22;42608;52.776;6.968;2023-06-10T12:01:44;25.80;58.50
56725;DHT22;42608;52.776;6.968;2023-06-10T12:04:10;26.00;59.30
56725;DHT22;42608;52.776;6.968;2023-06-10T12:06:47;26.10;57.80
56725;DHT22;42608;52.776;6.968;2023-06-10T12:09:13;26.20;58.70
56725;DHT22;42608;52.776;6.968;2023-06-10T12:11:39;26.30;57.80
56725;DHT22;42608;52.776;6.968;2023-06-10T12:14:05;26.40;56.50
56725;DHT22;42608;52.776;6.968;2023-06-10T12:16:34;26.50;53.10
56725;DHT22;42608;52.776;6.968;2023-06-10T12:19:03;26.60;53.00
56725;DHT22;42608;52.776;6.968;2023-06-10T12:21:29;26.70;51.40
56725;DHT22;42608;52.776;6.968;2023-06-10T12:26:35;26.80;50.40
56725;DHT22;42608;52.776;6.968;2023-06-10T12:29:02;26.90;49.70
56725;DHT22;42608;52.776;6.968;2023-06-10T12:31:30;26.90;50.00
56725;DHT22;42608;52.776;6.968;2023-06-10T12:34:08;27.00;50.10
56725;DHT22;42608;52.776;6.968;2023-06-10T12:36:34;27.10;49.20
56725;DHT22;42608;52.776;6.968;2023-06-10T12:39:05;27.10;48.10
56725;DHT22;42608;52.776;6.968;2023-06-10T12:41:31;27.20;49.10
56725;DHT22;42608;52.776;6.968;2023-06-10T12:43:57;27.30;49.10
56725;DHT22;42608;52.776;6.968;2023-06-10T12:46:27;27.40;48.90
56725;DHT22;42608;52.776;6.968;2023-06-10T12:49:01;27.50;49.60
56725;DHT22;42608;52.776;6.968;2023-06-10T12:51:26;27.60;48.70
56725;DHT22;42608;52.776;6.968;2023-06-10T12:53:52;27.80;48.70
56725;DHT22;42608;52.776;6.968;2023-06-10T12:56:17;27.90;47.40
56725;DHT22;42608;52.776;6.968;2023-06-10T12:58:46;27.90;46.90
56725;DHT22;42608;52.776;6.968;2023-06-10T13:01:13;28.00;47.10
56725;DHT22;42608;52.776;6.968;2023-06-10T13:03:39;28.10;48.20
56725;DHT22;42608;52.776;6.968;2023-06-10T13:06:05;28.20;48.40
56725;DHT22;42608;52.776;6.968;2023-06-10T13:08:31;28.30;47.70
56725;DHT22;42608;52.776;6.968;2023-06-10T13:10:57;28.40;47.10
56725;DHT22;42608;52.776;6.968;2023-06-10T13:13:23;28.40;46.50
56725;DHT22;42608;52.776;6.968;2023-06-10T13:15:49;28.60;48.10
56725;DHT22;42608;52.776;6.968;2023-06-10T13:18:15;28.60;46.60
56725;DHT22;42608;52.776;6.968;2023-06-10T13:20:43;28.70;46.70
56725;DHT22;42608;52.776;6.968;2023-06-10T13:23:08;28.80;45.30
56725;DHT22;42608;52.776;6.968;2023-06-10T13:25:34;28.80;45.00
56725;DHT22;42608;52.776;6.968;2023-06-10T13:28:00;28.90;43.80
56725;DHT22;42608;52.776;6.968;2023-06-10T13:30:26;29.00;44.90
56725;DHT22;42608;52.776;6.968;2023-06-10T13:32:52;29.10;44.10
56725;DHT22;42608;52.776;6.968;2023-06-10T13:35:17;29.10;43.10
56725;DHT22;42608;52.776;6.968;2023-06-10T13:37:43;29.20;44.40
56725;DHT22;42608;52.776;6.968;2023-06-10T13:40:08;29.30;43.70
56725;DHT22;42608;52.776;6.968;2023-06-10T13:42:35;29.30;44.40
56725;DHT22;42608;52.776;6.968;2023-06-10T13:45:02;29.40;44.10
56725;DHT22;42608;52.776;6.968;2023-06-10T13:47:27;29.30;44.50
56725;DHT22;42608;52.776;6.968;2023-06-10T13:49:53;29.50;44.50
56725;DHT22;42608;52.776;6.968;2023-06-10T13:52:19;29.50;44.20
56725;DHT22;42608;52.776;6.968;2023-06-10T13:54:44;29.50;45.10
56725;DHT22;42608;52.776;6.968;2023-06-10T13:57:10;29.60;43.70
56725;DHT22;42608;52.776;6.968;2023-06-10T13:59:36;29.50;43.20
56725;DHT22;42608;52.776;6.968;2023-06-10T14:02:01;29.60;43.90
56725;DHT22;42608;52.776;6.968;2023-06-10T14:04:27;29.70;43.90
56725;DHT22;42608;52.776;6.968;2023-06-10T14:06:52;29.80;45.00
56725;DHT22;42608;52.776;6.968;2023-06-10T14:09:18;29.90;43.70
56725;DHT22;42608;52.776;6.968;2023-06-10T14:11:44;29.90;42.30
56725;DHT22;42608;52.776;6.968;2023-06-10T14:14:10;30.00;40.90
56725;DHT22;42608;52.776;6.968;2023-06-10T14:16:35;30.00;39.00
56725;DHT22;42608;52.776;6.968;2023-06-10T14:19:01;30.00;38.80
56725;DHT22;42608;52.776;6.968;2023-06-10T14:21:27;30.00;39.00
56725;DHT22;42608;52.776;6.968;2023-06-10T14:23:52;30.00;38.40
56725;DHT22;42608;52.776;6.968;2023-06-10T14:26:19;30.10;37.80
56725;DHT22;42608;52.776;6.968;2023-06-10T14:28:45;30.10;37.50
56725;DHT22;42608;52.776;6.968;2023-06-10T14:31:11;30.20;37.80
56725;DHT22;42608;52.776;6.968;2023-06-10T14:33:36;30.10;37.50
56725;DHT22;42608;52.776;6.968;2023-06-10T14:36:02;30.10;37.50
56725;DHT22;42608;52.776;6.968;2023-06-10T14:38:28;30.00;37.00
56725;DHT22;42608;52.776;6.968;2023-06-10T14:40:53;30.00;37.90
56725;DHT22;42608;52.776;6.968;2023-06-10T14:43:19;29.90;37.70
56725;DHT22;42608;52.776;6.968;2023-06-10T14:45:44;29.90;38.20
56725;DHT22;42608;52.776;6.968;2023-06-10T14:48:13;29.90;39.50
56725;DHT22;42608;52.776;6.968;2023-06-10T14:50:39;29.90;38.80
56725;DHT22;42608;52.776;6.968;2023-06-10T14:53:06;29.90;38.60
56725;DHT22;42608;52.776;6.968;2023-06-10T14:55:31;29.90;38.90
56725;DHT22;42608;52.776;6.968;2023-06-10T14:57:57;29.80;37.50
56725;DHT22;42608;52.776;6.968;2023-06-10T15:00:23;29.80;37.70
56725;DHT22;42608;52.776;6.968;2023-06-10T15:02:49;29.70;37.60
56725;DHT22;42608;52.776;6.968;2023-06-10T15:05:15;29.70;38.00
56725;DHT22;42608;52.776;6.968;2023-06-10T15:07:41;29.60;38.10
56725;DHT22;42608;52.776;6.968;2023-06-10T15:10:09;29.70;38.70
56725;DHT22;42608;52.776;6.968;2023-06-10T15:12:38;29.70;39.40
56725;DHT22;42608;52.776;6.968;2023-06-10T15:15:03;29.70;39.80
56725;DHT22;42608;52.776;6.968;2023-06-10T15:17:29;29.70;39.40
56725;DHT22;42608;52.776;6.968;2023-06-10T15:19:55;29.70;39.60
56725;DHT22;42608;52.776;6.968;2023-06-10T15:22:26;29.70;39.50
56725;DHT22;42608;52.776;6.968;2023-06-10T15:24:51;29.70;40.50
56725;DHT22;42608;52.776;6.968;2023-06-10T15:27:17;29.60;40.10
56725;DHT22;42608;52.776;6.968;2023-06-10T15:29:42;29.70;40.60
56725;DHT22;42608;52.776;6.968;2023-06-10T15:32:09;29.70;40.10
56725;DHT22;42608;52.776;6.968;2023-06-10T15:34:35;29.70;40.50
56725;DHT22;42608;52.776;6.968;2023-06-10T15:37:01;29.70;40.00
56725;DHT22;42608;52.776;6.968;2023-06-10T15:39:27;29.60;39.70